Time;durP1;ratioP1;P1;durP2;ratioP2;P2;SDS_P1;SDS_P2;PMS_P1;PMS_P2;Temp;Humidity;BMP_temperature;BMP_pressure;BME280_temperature;BME280_humidity;BME280_pressure;Samples;Min_cycle;Max_cycle;Signal;HPM_P1;HPM_P2
2022/04/06 00:00:11;;;;;;;31.65;4.93;;;10.20;99.90;;;;;;5053137;28;20029;-84
2022/04/06 00:02:39;;;;;;;25.42;4.72;;;10.30;99.90;;;;;;5052981;28;20021;-83
2022/04/06 00:05:08;;;;;;;28.40;5.63;;;10.30;99.90;;;;;;5052699;28;20500;-81
2022/04/06 00:07:34;;;;;;;27.83;5.35;;;10.30;99.90;;;;;;5053277;28;20020;-82
2022/04/06 00:09:59;;;;;;;24.00;4.43;;;10.40;99.90;;;;;;5053195;28;20492;-83
2022/04/06 00:12:25;;;;;;;24.40;5.68;;;10.30;99.90;;;;;;5054105;28;20033;-84
2022/04/06 00:14:51;;;;;;;23.40;4.55;;;10.30;99.90;;;;;;5053910;28;20025;-82
2022/04/06 00:17:16;;;;;;;24.45;4.57;;;10.20;99.90;;;;;;5053561;28;20025;-77
2022/04/06 00:19:42;;;;;;;20.10;4.28;;;10.20;99.90;;;;;;5053062;28;20025;-79
2022/04/06 00:22:08;;;;;;;23.67;4.93;;;10.30;99.90;;;;;;5053654;28;20033;-76
2022/04/06 00:24:34;;;;;;;23.50;4.43;;;10.30;99.90;;;;;;5053655;28;20104;-79
2022/04/06 00:27:00;;;;;;;21.73;3.97;;;10.30;99.90;;;;;;5053068;28;20028;-78
2022/04/06 00:29:25;;;;;;;20.13;3.72;;;10.30;99.90;;;;;;5053226;28;20029;-81
2022/04/06 00:31:51;;;;;;;22.83;4.82;;;10.20;99.90;;;;;;5054536;28;20033;-82
2022/04/06 00:34:17;;;;;;;18.58;3.95;;;10.30;99.90;;;;;;5052998;28;20033;-83
2022/04/06 00:36:42;;;;;;;19.33;4.35;;;10.20;99.90;;;;;;5053474;28;20067;-83
2022/04/06 00:39:08;;;;;;;18.25;3.95;;;10.30;99.90;;;;;;5052779;28;20068;-83
2022/04/06 00:41:34;;;;;;;23.80;4.00;;;10.30;99.90;;;;;;5052671;28;20036;-84
2022/04/06 00:44:17;;;;;;;18.70;3.80;;;10.30;99.90;;;;;;5052648;28;20082;-84
2022/04/06 00:46:44;;;;;;;15.45;4.65;;;10.30;99.90;;;;;;5052737;28;20112;-84
2022/04/06 00:49:14;;;;;;;17.00;3.97;;;10.20;99.90;;;;;;5052318;28;20033;-83
2022/04/06 00:51:48;;;;;;;25.27;4.00;;;10.10;99.90;;;;;;5051460;28;20057;-84
2022/04/06 00:54:16;;;;;;;21.67;3.85;;;10.20;99.90;;;;;;5052489;28;20040;-83
2022/04/06 00:56:44;;;;;;;21.67;4.03;;;10.20;99.90;;;;;;5052731;28;20103;-83
2022/04/06 00:59:10;;;;;;;12.63;3.10;;;10.20;99.90;;;;;;5052562;28;20068;-82
2022/04/06 01:01:37;;;;;;;19.60;3.70;;;10.20;99.90;;;;;;5052524;28;20025;-83
2022/04/06 01:04:03;;;;;;;23.52;4.15;;;10.20;99.90;;;;;;5051923;28;20135;-83
2022/04/06 01:06:29;;;;;;;9.38;2.65;;;10.10;99.90;;;;;;5051378;28;20462;-83
2022/04/06 01:08:55;;;;;;;17.63;3.63;;;10.10;99.90;;;;;;5052760;28;20044;-82
2022/04/06 01:11:21;;;;;;;18.40;3.88;;;10.10;99.90;;;;;;5052351;28;20021;-83
2022/04/06 01:13:47;;;;;;;18.38;3.70;;;10.20;99.90;;;;;;5052439;28;20564;-83
2022/04/06 01:16:13;;;;;;;16.35;2.95;;;10.20;99.90;;;;;;5050990;28;20179;-83
2022/04/06 01:18:41;;;;;;;15.55;3.13;;;10.10;99.90;;;;;;5052192;28;20513;-83
2022/04/06 01:21:07;;;;;;;17.73;3.22;;;10.20;99.90;;;;;;5052357;28;20110;-83
2022/04/06 01:23:33;;;;;;;16.42;3.60;;;10.00;99.90;;;;;;5051521;28;20041;-83
2022/04/06 01:25:59;;;;;;;18.33;3.65;;;10.00;99.90;;;;;;5034305;28;20124;-84
2022/04/06 01:28:26;;;;;;;21.70;3.60;;;10.10;99.90;;;;;;5052352;28;20075;-84
2022/04/06 01:30:52;;;;;;;15.63;3.22;;;10.10;99.90;;;;;;5052067;28;20441;-83
2022/04/06 01:33:18;;;;;;;19.75;3.30;;;10.00;99.90;;;;;;5051954;28;20036;-82
2022/04/06 01:35:43;;;;;;;18.60;3.50;;;10.00;99.90;;;;;;5052029;28;20473;-79
2022/04/06 01:38:09;;;;;;;15.40;2.47;;;10.10;99.90;;;;;;5054692;28;20478;-83
2022/04/06 01:40:35;;;;;;;20.10;4.30;;;10.00;99.90;;;;;;5055710;28;20066;-83
2022/04/06 01:43:01;;;;;;;12.48;3.15;;;10.00;99.90;;;;;;5055702;28;20029;-83
2022/04/06 01:45:27;;;;;;;15.52;2.97;;;10.00;99.90;;;;;;5055310;28;20033;-84
2022/04/06 01:47:53;;;;;;;18.48;2.95;;;10.00;99.90;;;;;;5054581;28;20128;-83
2022/04/06 01:53:04;;;;;;;13.38;3.20;;;10.10;99.90;;;;;;5055523;28;20040;-82
2022/04/06 01:55:30;;;;;;;17.10;2.85;;;10.10;99.90;;;;;;5055404;28;20037;-80
2022/04/06 01:57:56;;;;;;;16.45;2.92;;;10.10;99.90;;;;;;5055696;28;20507;-83
2022/04/06 02:00:21;;;;;;;12.60;1.98;;;10.20;99.90;;;;;;5055174;28;20127;-83
2022/04/06 02:02:50;;;;;;;13.80;2.88;;;10.10;99.90;;;;;;5055235;28;20127;-79
2022/04/06 02:05:16;;;;;;;19.00;2.88;;;10.10;99.90;;;;;;5055221;28;20029;-79
2022/04/06 02:07:43;;;;;;;16.50;2.80;;;10.20;99.90;;;;;;5055268;28;20056;-77
2022/04/06 02:10:09;;;;;;;22.85;3.80;;;10.10;99.90;;;;;;5055212;28;20025;-79
2022/04/06 02:12:37;;;;;;;14.40;3.13;;;10.10;99.90;;;;;;5055321;28;20083;-82
2022/04/06 02:15:03;;;;;;;12.55;2.40;;;10.10;99.90;;;;;;5054989;28;20118;-73
2022/04/06 02:17:29;;;;;;;10.15;2.08;;;10.10;99.90;;;;;;5053900;28;20173;-76
2022/04/06 02:19:55;;;;;;;10.38;2.70;;;10.00;99.90;;;;;;5053694;28;20025;-80
2022/04/06 02:22:21;;;;;;;11.63;2.25;;;10.10;99.90;;;;;;5034767;28;20021;-83
2022/04/06 02:24:46;;;;;;;12.63;2.55;;;10.10;99.90;;;;;;5034906;28;20041;-83
2022/04/06 02:27:12;;;;;;;14.73;2.60;;;10.10;99.90;;;;;;5034931;28;20030;-83
2022/04/06 02:29:40;;;;;;;12.55;3.22;;;10.10;99.90;;;;;;5034921;28;20079;-83
2022/04/06 02:32:08;;;;;;;11.23;2.35;;;10.10;99.90;;;;;;5034771;28;20112;-81
2022/04/06 02:34:34;;;;;;;17.33;2.83;;;10.10;99.90;;;;;;5034806;28;20026;-82
2022/04/06 02:37:00;;;;;;;17.73;2.60;;;10.10;99.90;;;;;;5034782;28;20033;-83
2022/04/06 02:39:26;;;;;;;11.77;2.78;;;10.10;99.90;;;;;;5034744;28;20379;-83
2022/04/06 02:41:53;;;;;;;14.68;2.50;;;10.10;99.90;;;;;;5034852;28;20049;-83
2022/04/06 02:44:19;;;;;;;13.52;3.47;;;10.10;99.90;;;;;;5034143;28;20037;-84
2022/04/06 02:46:46;;;;;;;20.25;3.20;;;10.10;99.90;;;;;;5036542;28;20133;-83
2022/04/06 02:49:12;;;;;;;20.75;2.95;;;10.10;99.90;;;;;;5053271;28;20033;-82
2022/04/06 02:51:38;;;;;;;19.77;3.10;;;10.10;99.90;;;;;;5054585;28;20028;-84
2022/04/06 02:54:04;;;;;;;17.27;3.80;;;10.10;99.90;;;;;;5054437;28;20021;-83
2022/04/06 02:56:30;;;;;;;16.90;3.42;;;10.10;99.90;;;;;;5054336;28;20116;-83
2022/04/06 02:58:56;;;;;;;15.70;3.38;;;10.00;99.90;;;;;;5054259;28;20021;-83
2022/04/06 03:01:22;;;;;;;22.88;4.10;;;10.10;99.90;;;;;;5054241;28;20374;-84
2022/04/06 03:03:48;;;;;;;4.78;1.75;;;10.10;99.90;;;;;;5054026;28;20039;-84
2022/04/06 03:06:14;;;;;;;11.40;2.83;;;10.00;99.90;;;;;;5054722;28;20040;-83
2022/04/06 03:08:39;;;;;;;24.00;4.05;;;9.90;99.90;;;;;;5054630;28;20085;-83
2022/04/06 03:11:05;;;;;;;27.08;4.00;;;10.00;99.90;;;;;;5053098;28;20036;-83
2022/04/06 03:13:31;;;;;;;18.08;3.42;;;9.90;99.90;;;;;;5053641;28;20044;-83
2022/04/06 03:15:57;;;;;;;25.20;4.25;;;9.90;99.90;;;;;;5054108;28;20049;-84
2022/04/06 03:18:23;;;;;;;26.30;3.92;;;9.90;99.90;;;;;;5054095;28;20029;-83
2022/04/06 03:20:49;;;;;;;20.50;3.65;;;9.90;99.90;;;;;;5054057;28;20049;-84
2022/04/06 03:23:15;;;;;;;23.73;4.50;;;9.90;99.90;;;;;;5053733;28;20053;-83
2022/04/06 03:25:41;;;;;;;31.05;5.00;;;9.90;99.90;;;;;;5053597;28;20414;-83
2022/04/06 03:28:07;;;;;;;31.63;6.10;;;9.90;99.90;;;;;;5053526;28;20035;-84
2022/04/06 03:30:33;;;;;;;20.75;5.05;;;10.00;99.90;;;;;;5053901;28;20035;-84
2022/04/06 03:32:59;;;;;;;21.83;4.93;;;9.90;99.90;;;;;;5053805;28;20032;-83
2022/04/06 03:35:25;;;;;;;26.75;5.07;;;9.90;99.90;;;;;;5053706;28;20409;-83
2022/04/06 03:37:51;;;;;;;33.78;5.30;;;9.90;99.90;;;;;;5053413;28;20063;-83
2022/04/06 03:40:17;;;;;;;21.45;3.40;;;9.80;99.90;;;;;;5053556;28;20036;-83
2022/04/06 03:42:43;;;;;;;24.33;3.92;;;9.90;99.90;;;;;;5053179;28;20033;-83
2022/04/06 03:45:09;;;;;;;32.10;5.75;;;9.90;99.90;;;;;;5053556;28;20033;-83
2022/04/06 03:47:36;;;;;;;22.42;3.95;;;9.80;99.90;;;;;;5053304;28;20036;-83
2022/04/06 03:50:03;;;;;;;24.80;4.32;;;9.80;99.90;;;;;;5052112;28;20060;-83
2022/04/06 03:52:29;;;;;;;24.63;3.65;;;9.80;99.90;;;;;;5053272;28;20033;-83
2022/04/06 03:54:55;;;;;;;27.77;4.47;;;9.90;99.90;;;;;;5053504;28;20024;-84
2022/04/06 03:57:22;;;;;;;25.27;4.00;;;9.90;99.90;;;;;;5053044;28;20029;-83
2022/04/06 03:59:48;;;;;;;25.88;3.80;;;9.80;99.90;;;;;;5053427;28;20078;-83
2022/04/06 04:02:13;;;;;;;28.10;4.68;;;9.90;99.90;;;;;;5053035;28;20025;-83
2022/04/06 04:04:39;;;;;;;20.60;3.15;;;9.90;99.90;;;;;;5051639;28;20091;-83
2022/04/06 04:07:07;;;;;;;21.67;3.83;;;9.80;99.90;;;;;;5052101;28;20029;-83
2022/04/06 04:09:34;;;;;;;13.18;3.45;;;9.80;99.90;;;;;;5053178;28;20090;-82
2022/04/06 04:11:59;;;;;;;22.48;3.42;;;9.80;99.90;;;;;;5052839;28;20061;-82
2022/04/06 04:14:25;;;;;;;19.05;3.78;;;9.80;99.90;;;;;;5051570;28;20657;-83
2022/04/06 04:16:51;;;;;;;20.98;4.25;;;9.90;99.90;;;;;;5053098;28;20111;-83
2022/04/06 04:19:17;;;;;;;18.98;3.80;;;9.90;99.90;;;;;;5052843;28;20021;-82
2022/04/06 04:21:43;;;;;;;33.08;4.00;;;9.80;99.90;;;;;;5053058;28;20381;-83
2022/04/06 04:24:09;;;;;;;22.85;3.47;;;9.90;99.90;;;;;;5052718;28;20067;-82
2022/04/06 04:26:36;;;;;;;14.73;2.78;;;9.90;99.90;;;;;;5052511;28;20068;-83
2022/04/06 04:29:07;;;;;;;21.80;4.63;;;9.90;99.90;;;;;;5051502;28;20039;-83
2022/04/06 04:31:33;;;;;;;19.35;2.90;;;10.00;99.90;;;;;;5052887;28;20470;-82
2022/04/06 04:33:59;;;;;;;9.63;2.38;;;9.90;99.90;;;;;;5052639;28;20075;-84
2022/04/06 04:36:25;;;;;;;13.18;2.47;;;9.90;99.90;;;;;;5052879;28;20553;-81
2022/04/06 04:38:51;;;;;;;15.27;2.45;;;9.90;99.90;;;;;;5052961;28;20036;-83
2022/04/06 04:41:17;;;;;;;10.55;2.08;;;9.90;99.90;;;;;;5051083;28;20036;-82
2022/04/06 04:43:42;;;;;;;11.02;1.50;;;10.00;99.90;;;;;;5052620;28;20045;-83
2022/04/06 04:46:08;;;;;;;12.57;2.28;;;10.00;99.90;;;;;;5052669;28;20044;-83
2022/04/06 04:48:34;;;;;;;8.27;1.77;;;9.90;99.90;;;;;;5052341;28;20048;-82
2022/04/06 04:51:00;;;;;;;6.75;1.98;;;10.00;99.90;;;;;;5052643;28;20017;-80
2022/04/06 04:53:26;;;;;;;7.15;1.27;;;9.90;99.90;;;;;;5052765;28;20041;-76
2022/04/06 04:55:53;;;;;;;6.00;1.92;;;9.90;99.90;;;;;;5052347;28;20363;-76
2022/04/06 04:58:20;;;;;;;2.67;1.00;;;9.90;99.90;;;;;;5052614;28;20075;-79
2022/04/06 05:00:46;;;;;;;7.75;1.35;;;9.90;99.90;;;;;;5052520;28;20037;-80
2022/04/06 05:03:12;;;;;;;5.45;1.55;;;9.90;99.90;;;;;;5052326;28;20029;-77
2022/04/06 05:05:40;;;;;;;8.93;2.55;;;9.90;99.90;;;;;;5051134;28;20035;-78
2022/04/06 05:08:06;;;;;;;7.55;1.70;;;10.00;99.90;;;;;;5052737;28;20040;-82
2022/04/06 05:10:32;;;;;;;6.95;1.00;;;9.90;99.90;;;;;;5052134;28;20017;-82
2022/04/06 05:12:58;;;;;;;7.65;1.50;;;9.90;99.90;;;;;;5054663;28;20029;-81
2022/04/06 05:15:23;;;;;;;10.07;1.05;;;10.00;99.90;;;;;;5054816;28;20113;-82
2022/04/06 05:17:49;;;;;;;14.15;1.55;;;10.00;99.90;;;;;;5056815;28;20033;-81
2022/04/06 05:20:15;;;;;;;7.75;1.23;;;9.90;99.90;;;;;;5056047;28;20028;-82
2022/04/06 05:22:41;;;;;;;6.65;1.10;;;9.90;99.90;;;;;;5056100;28;20037;-82
2022/04/06 05:25:08;;;;;;;5.18;1.27;;;9.90;99.90;;;;;;5055845;28;20480;-83
2022/04/06 05:27:51;;;;;;;4.05;1.10;;;9.80;99.90;;;;;;5056020;28;20374;-82
2022/04/06 05:30:19;;;;;;;7.38;1.38;;;9.90;99.90;;;;;;5055887;28;20028;-82
2022/04/06 05:32:48;;;;;;;8.57;1.88;;;9.90;99.90;;;;;;5055934;28;20024;-81
2022/04/06 05:35:14;;;;;;;4.00;1.38;;;9.90;99.90;;;;;;5055916;28;20037;-82
2022/04/06 05:37:41;;;;;;;6.60;1.35;;;9.90;99.90;;;;;;5055614;28;20040;-82
2022/04/06 05:40:09;;;;;;;11.00;1.30;;;9.90;99.90;;;;;;5055973;28;20033;-82
2022/04/06 05:42:35;;;;;;;6.28;1.10;;;9.90;99.90;;;;;;5055771;28;20061;-81
2022/04/06 05:45:02;;;;;;;8.35;1.45;;;9.90;99.90;;;;;;5055644;28;20043;-82
2022/04/06 05:47:29;;;;;;;5.40;1.45;;;10.00;99.90;;;;;;5055609;28;20048;-83
2022/04/06 05:49:55;;;;;;;8.75;2.75;;;10.00;99.90;;;;;;5056277;28;20075;-83
2022/04/06 05:52:21;;;;;;;4.93;1.20;;;10.00;99.90;;;;;;5055267;28;20021;-82
2022/04/06 05:54:46;;;;;;;9.35;1.20;;;10.00;99.90;;;;;;5055622;28;20021;-82
2022/04/06 05:57:12;;;;;;;6.15;1.27;;;10.10;99.90;;;;;;5055401;28;20033;-82
2022/04/06 05:59:39;;;;;;;19.88;1.48;;;10.00;99.90;;;;;;5055425;28;20033;-83
2022/04/06 06:02:05;;;;;;;9.55;1.90;;;10.00;99.90;;;;;;5055250;28;20482;-82
2022/04/06 06:04:33;;;;;;;9.07;1.17;;;10.00;99.90;;;;;;5055310;28;20101;-80
2022/04/06 06:06:59;;;;;;;8.18;1.83;;;10.10;99.90;;;;;;5054938;28;20527;-82
2022/04/06 06:09:24;;;;;;;9.02;1.25;;;10.10;99.90;;;;;;5055303;28;20036;-82
2022/04/06 06:11:50;;;;;;;11.15;1.90;;;10.10;99.90;;;;;;5055216;28;20025;-83
2022/04/06 06:14:16;;;;;;;7.38;1.88;;;10.00;99.90;;;;;;5055236;28;20025;-82
2022/04/06 06:16:42;;;;;;;7.55;1.55;;;10.10;99.90;;;;;;5055274;28;20021;-83
2022/04/06 06:19:07;;;;;;;6.18;1.33;;;10.10;99.90;;;;;;5055314;28;20021;-81
2022/04/06 06:21:33;;;;;;;10.48;1.50;;;10.00;99.90;;;;;;5054566;28;20478;-79
2022/04/06 06:24:05;;;;;;;5.07;1.50;;;10.10;99.90;;;;;;5052384;28;20037;-82
2022/04/06 06:26:35;;;;;;;8.88;1.77;;;10.00;99.90;;;;;;5054729;28;20359;-82
2022/04/06 06:29:01;;;;;;;9.60;1.45;;;10.00;99.90;;;;;;5053844;28;20436;-81
2022/04/06 06:31:31;;;;;;;5.40;1.75;;;10.00;99.90;;;;;;5054711;28;20025;-82
2022/04/06 06:33:58;;;;;;;4.63;1.83;;;10.00;99.90;;;;;;5054763;28;20029;-82
2022/04/06 06:36:24;;;;;;;7.45;1.75;;;10.20;99.90;;;;;;5053178;28;20075;-82
2022/04/06 06:38:51;;;;;;;8.48;2.08;;;10.10;99.90;;;;;;5054723;28;20024;-82
2022/04/06 06:41:18;;;;;;;16.02;1.63;;;10.20;99.90;;;;;;5054895;28;20458;-83
2022/04/06 06:43:44;;;;;;;8.95;1.85;;;10.20;99.90;;;;;;5054454;28;20375;-81
2022/04/06 06:46:11;;;;;;;11.82;2.17;;;10.10;99.90;;;;;;5054678;28;20040;-81
2022/04/06 06:48:37;;;;;;;6.82;1.30;;;10.20;99.90;;;;;;5054668;28;20513;-84
2022/04/06 06:51:03;;;;;;;11.63;2.13;;;10.20;99.90;;;;;;5053417;28;20028;-83
2022/04/06 06:53:29;;;;;;;5.65;1.65;;;10.20;99.90;;;;;;5054183;28;20032;-83
2022/04/06 06:55:55;;;;;;;3.03;1.35;;;10.20;99.90;;;;;;5054594;28;20032;-87
2022/04/06 06:58:21;;;;;;;11.82;1.60;;;10.20;99.90;;;;;;5054336;28;20100;-84
2022/04/06 07:00:47;;;;;;;11.18;1.70;;;10.30;99.90;;;;;;5053153;28;20124;-82
2022/04/06 07:03:13;;;;;;;9.60;1.73;;;10.10;99.90;;;;;;5054002;28;20123;-82
2022/04/06 07:05:38;;;;;;;10.27;3.30;;;10.20;99.90;;;;;;5053640;28;20036;-82
2022/04/06 07:08:04;;;;;;;11.55;3.55;;;10.10;99.90;;;;;;5054165;28;20033;-82
2022/04/06 07:10:30;;;;;;;11.85;2.88;;;10.10;99.90;;;;;;5052765;28;20024;-82
2022/04/06 07:12:56;;;;;;;4.32;1.30;;;10.20;99.90;;;;;;5054133;28;20029;-82
2022/04/06 07:15:23;;;;;;;10.73;2.17;;;10.20;99.90;;;;;;5052853;28;20021;-82
2022/04/06 07:17:55;;;;;;;18.95;3.85;;;10.40;99.90;;;;;;5052570;28;20537;-82
2022/04/06 07:20:26;;;;;;;24.08;7.28;;;10.40;99.90;;;;;;5053725;28;20473;-83
2022/04/06 07:22:52;;;;;;;12.90;3.75;;;10.60;99.90;;;;;;5053634;28;20039;-83
2022/04/06 07:25:19;;;;;;;14.88;4.53;;;10.50;99.90;;;;;;5053857;28;20033;-78
2022/04/06 07:27:44;;;;;;;8.25;3.78;;;10.60;99.90;;;;;;5053591;28;20032;-83
2022/04/06 07:30:12;;;;;;;16.08;1.58;;;10.50;99.90;;;;;;5053787;28;20100;-82
2022/04/06 07:32:37;;;;;;;8.07;2.03;;;10.40;99.90;;;;;;5053502;28;20029;-82
2022/04/06 07:35:05;;;;;;;9.02;1.77;;;10.50;99.90;;;;;;5052922;28;20029;-82
2022/04/06 07:37:41;;;;;;;16.55;2.88;;;10.60;99.90;;;;;;5052282;28;20470;-81
2022/04/06 07:40:09;;;;;;;13.38;2.88;;;10.50;99.90;;;;;;5053391;28;20025;-81
2022/04/06 07:42:35;;;;;;;14.80;2.20;;;10.60;99.90;;;;;;5052252;28;20037;-82
2022/04/06 07:45:07;;;;;;;14.05;2.40;;;10.50;99.90;;;;;;5052129;28;20024;-81
2022/04/06 07:47:33;;;;;;;12.93;2.88;;;10.50;99.90;;;;;;5053470;28;20068;-81
2022/04/06 07:50:00;;;;;;;16.83;2.78;;;10.50;99.90;;;;;;5051968;28;20482;-82
2022/04/06 07:52:26;;;;;;;13.32;2.28;;;10.60;99.90;;;;;;5053312;28;20017;-79
2022/04/06 07:54:52;;;;;;;13.23;1.73;;;10.50;99.90;;;;;;5053211;28;20061;-82
2022/04/06 07:57:24;;;;;;;11.80;2.65;;;10.50;99.90;;;;;;5053257;28;20075;-79
2022/04/06 07:59:51;;;;;;;8.85;2.13;;;10.50;99.90;;;;;;5052961;28;20124;-77
2022/04/06 08:02:16;;;;;;;15.80;2.10;;;10.40;99.90;;;;;;5053047;28;20025;-75
2022/04/06 08:04:42;;;;;;;9.43;2.55;;;10.50;99.90;;;;;;5052660;28;20363;-77
2022/04/06 08:07:08;;;;;;;10.10;2.13;;;10.50;99.90;;;;;;5053113;28;20393;-79
2022/04/06 08:09:34;;;;;;;10.98;3.67;;;10.40;99.90;;;;;;5053003;28;20037;-75
2022/04/06 08:12:01;;;;;;;11.23;3.05;;;10.50;99.90;;;;;;5053072;28;20055;-80
2022/04/06 08:14:28;;;;;;;9.18;2.13;;;10.50;99.90;;;;;;5052905;28;20390;-82
2022/04/06 08:16:55;;;;;;;13.45;2.67;;;10.40;99.90;;;;;;5051482;28;20039;-80
2022/04/06 08:19:22;;;;;;;13.35;2.50;;;10.50;99.90;;;;;;5052999;28;20017;-77
2022/04/06 08:21:52;;;;;;;11.40;3.05;;;10.40;99.90;;;;;;5053111;28;20367;-80
2022/04/06 08:24:18;;;;;;;12.40;2.75;;;10.50;99.90;;;;;;5052778;28;20045;-76
2022/04/06 08:26:44;;;;;;;12.65;2.72;;;10.40;99.90;;;;;;5052887;28;20029;-83
2022/04/06 08:29:10;;;;;;;6.03;2.25;;;10.40;99.90;;;;;;5052816;28;20179;-82
2022/04/06 08:31:36;;;;;;;9.07;3.00;;;10.40;99.90;;;;;;5052415;28;20374;-82
2022/04/06 08:34:04;;;;;;;11.68;3.60;;;10.50;99.90;;;;;;5052799;28;20036;-83
2022/04/06 08:36:30;;;;;;;11.13;3.15;;;10.70;99.90;;;;;;5052941;28;20029;-83
2022/04/06 08:38:56;;;;;;;7.78;2.78;;;10.50;99.90;;;;;;5052704;28;20037;-83
2022/04/06 08:41:26;;;;;;;6.95;3.30;;;10.40;99.90;;;;;;5052470;28;20036;-80
2022/04/06 08:43:53;;;;;;;11.98;3.33;;;10.40;99.90;;;;;;5052541;28;20401;-82
2022/04/06 08:46:20;;;;;;;11.05;5.43;;;10.50;99.90;;;;;;5052394;28;20021;-83
2022/04/06 08:48:48;;;;;;;17.75;4.03;;;10.40;99.90;;;;;;5056411;28;20063;-83
2022/04/06 08:51:16;;;;;;;7.18;3.15;;;10.20;99.90;;;;;;5055259;28;20363;-82
2022/04/06 08:53:43;;;;;;;7.90;3.05;;;10.30;99.90;;;;;;5056671;28;20489;-82
2022/04/06 08:56:12;;;;;;;12.05;3.25;;;10.40;99.90;;;;;;5056738;28;20029;-82
2022/04/06 08:58:38;;;;;;;8.10;2.60;;;10.50;99.90;;;;;;5056609;28;20035;-84
2022/04/06 09:01:05;;;;;;;11.18;2.47;;;10.40;99.90;;;;;;5056290;28;20021;-83
2022/04/06 09:03:30;;;;;;;10.98;3.53;;;10.30;99.90;;;;;;5054785;28;20041;-81
2022/04/06 09:06:05;;;;;;;8.10;2.28;;;10.20;99.90;;;;;;5056862;28;20179;-84
2022/04/06 09:08:40;;;;;;;7.20;2.40;;;10.10;99.90;;;;;;5055236;28;20041;-77
2022/04/06 09:11:11;;;;;;;16.35;4.05;;;10.20;99.90;;;;;;5054943;28;20139;-77
2022/04/06 09:13:38;;;;;;;14.60;3.85;;;10.20;99.90;;;;;;5056363;28;20029;-80
2022/04/06 09:16:08;;;;;;;8.57;2.10;;;10.20;99.90;;;;;;5056464;28;20029;-73
2022/04/06 09:18:36;;;;;;;14.82;3.10;;;10.30;99.90;;;;;;5056540;28;20028;-74
2022/04/06 09:21:02;;;;;;;10.07;2.33;;;10.40;99.90;;;;;;5055966;28;20044;-74
2022/04/06 09:23:32;;;;;;;9.52;2.70;;;10.30;99.90;;;;;;5054969;28;20049;-78
2022/04/06 09:26:06;;;;;;;12.43;2.53;;;10.20;99.90;;;;;;5056162;28;20036;-73
2022/04/06 09:28:32;;;;;;;10.23;2.47;;;10.30;99.90;;;;;;5056109;28;20112;-75
2022/04/06 09:30:58;;;;;;;9.05;2.83;;;10.20;99.90;;;;;;5055797;28;20044;-75
2022/04/06 09:33:29;;;;;;;7.30;2.58;;;10.30;99.90;;;;;;5056071;28;20052;-82
2022/04/06 09:35:58;;;;;;;9.30;2.38;;;10.40;99.90;;;;;;5056156;28;20025;-81
2022/04/06 09:38:27;;;;;;;10.85;3.38;;;10.30;99.90;;;;;;5056292;28;20466;-81
2022/04/06 09:41:06;;;;;;;7.47;3.13;;;10.40;99.90;;;;;;5060676;28;20044;-75
2022/04/06 09:43:33;;;;;;;8.50;2.20;;;10.30;99.90;;;;;;5059123;28;20047;-72
2022/04/06 09:49:10;;;;;;;7.57;1.83;;;10.60;99.90;;;;;;5039737;28;20116;-73
2022/04/06 09:51:40;;;;;;;10.77;2.45;;;10.30;99.90;;;;;;5036645;28;20057;-81
2022/04/06 09:54:08;;;;;;;11.13;2.20;;;10.30;99.90;;;;;;5034984;28;20033;-81
2022/04/06 09:56:35;;;;;;;10.88;3.95;;;10.40;99.90;;;;;;5035714;28;20127;-81
2022/04/06 09:59:02;;;;;;;6.15;2.17;;;10.60;99.90;;;;;;5034844;28;20033;-81
2022/04/06 10:01:33;;;;;;;6.85;1.85;;;10.40;99.90;;;;;;5035511;28;20108;-81
2022/04/06 10:04:07;;;;;;;11.75;2.08;;;10.40;99.90;;;;;;5053439;28;20124;-81
2022/04/06 10:06:42;;;;;;;11.10;1.90;;;10.50;99.90;;;;;;5055775;28;20116;-82
2022/04/06 10:09:16;;;;;;;5.03;1.75;;;10.60;99.90;;;;;;5054277;28;20040;-82
2022/04/06 10:11:43;;;;;;;7.78;2.47;;;10.60;99.90;;;;;;5055620;28;20033;-81
2022/04/06 10:14:10;;;;;;;5.53;2.67;;;10.70;99.90;;;;;;5055120;28;20056;-82
2022/04/06 10:16:38;;;;;;;4.13;1.40;;;10.80;99.90;;;;;;5053900;28;20116;-81
2022/04/06 10:19:07;;;;;;;8.50;2.40;;;10.90;99.90;;;;;;5055101;28;20029;-82
2022/04/06 10:21:53;;;;;;;6.30;2.25;;;10.90;99.90;;;;;;5055049;28;20052;-82
2022/04/06 10:24:53;;;;;;;5.55;2.22;;;11.10;99.90;;;;;;5037073;28;20065;-80
2022/04/06 10:27:32;;;;;;;9.45;2.13;;;11.00;99.90;;;;;;5054757;28;20045;-81
2022/04/06 10:30:07;;;;;;;5.60;2.55;;;11.10;99.90;;;;;;5053780;28;20389;-80
2022/04/06 10:32:37;;;;;;;5.50;1.48;;;10.90;99.90;;;;;;5054827;28;20033;-81
2022/04/06 10:35:23;;;;;;;10.45;2.60;;;10.90;99.90;;;;;;5055008;28;20025;-82
2022/04/06 10:37:52;;;;;;;10.32;1.95;;;11.00;99.90;;;;;;5055061;28;20048;-81
2022/04/06 10:40:18;;;;;;;10.38;2.53;;;11.00;99.90;;;;;;5054472;28;20036;-82
2022/04/06 10:42:45;;;;;;;13.10;2.13;;;10.90;99.90;;;;;;5054234;28;20028;-82
2022/04/06 10:45:29;;;;;;;10.10;2.40;;;11.00;99.90;;;;;;5054676;28;20099;-81
2022/04/06 10:48:15;;;;;;;11.40;2.20;;;11.00;99.90;;;;;;5054306;28;20033;-81
2022/04/06 10:50:45;;;;;;;9.30;1.70;;;11.20;99.90;;;;;;5054865;28;20029;-82
2022/04/06 10:53:20;;;;;;;3.45;1.65;;;11.10;99.90;;;;;;5054313;28;20033;-82
2022/04/06 10:55:59;;;;;;;8.45;3.13;;;10.90;99.90;;;;;;5053579;28;20040;-82
2022/04/06 10:58:26;;;;;;;8.57;3.10;;;11.00;99.90;;;;;;5054083;28;20465;-82
2022/04/06 11:01:15;;;;;;;4.32;2.00;;;11.10;99.90;;;;;;5053194;28;20025;-83
2022/04/06 11:03:54;;;;;;;5.82;2.03;;;11.00;99.90;;;;;;5054045;28;20124;-82
2022/04/06 11:06:48;;;;;;;7.47;2.00;;;11.00;99.90;;;;;;5054087;28;20052;-82
2022/04/06 11:12:14;;;;;;;5.97;1.45;;;11.10;99.90;;;;;;5053835;28;20044;-81
2022/04/06 11:14:41;;;;;;;5.05;1.30;;;11.00;99.90;;;;;;5054135;28;20025;-81
2022/04/06 11:17:37;;;;;;;8.30;1.70;;;11.00;99.90;;;;;;5054120;28;20036;-81
2022/04/06 11:20:16;;;;;;;9.02;1.60;;;11.00;99.90;;;;;;5054086;28;20043;-81
2022/04/06 11:22:49;;;;;;;9.77;2.00;;;11.10;99.90;;;;;;5053786;28;20033;-81
2022/04/06 11:25:17;;;;;;;4.13;2.00;;;11.20;99.90;;;;;;5053780;28;20444;-82
2022/04/06 11:27:45;;;;;;;12.10;2.38;;;11.20;99.90;;;;;;5052155;28;20021;-81
2022/04/06 11:30:16;;;;;;;9.82;2.58;;;11.20;99.90;;;;;;5053725;28;20102;-79
2022/04/06 11:32:46;;;;;;;12.82;2.53;;;11.30;99.90;;;;;;5053446;28;20037;-79
2022/04/06 11:35:13;;;;;;;6.78;1.63;;;11.30;99.90;;;;;;5053551;28;20017;-81
2022/04/06 11:37:50;;;;;;;3.17;1.77;;;11.10;99.90;;;;;;5053619;28;20029;-82
2022/04/06 11:40:17;;;;;;;7.40;2.28;;;11.20;99.90;;;;;;5053090;28;20115;-81
2022/04/06 11:43:04;;;;;;;7.45;1.85;;;11.20;99.90;;;;;;5035611;28;20033;-80
2022/04/06 11:45:37;;;;;;;10.63;1.65;;;11.30;99.90;;;;;;5053471;28;20128;-81
2022/04/06 11:48:07;;;;;;;6.40;1.90;;;11.30;99.90;;;;;;5053104;28;20025;-75
2022/04/06 11:50:37;;;;;;;4.18;1.65;;;11.20;99.90;;;;;;5053426;28;20056;-75
2022/04/06 11:53:06;;;;;;;3.80;1.40;;;11.30;99.90;;;;;;5053212;28;20386;-81
2022/04/06 11:55:48;;;;;;;3.53;1.92;;;11.30;99.90;;;;;;5053017;28;20033;-76
2022/04/06 11:58:37;;;;;;;5.40;1.45;;;11.40;99.90;;;;;;5053092;28;20028;-77
2022/04/06 12:01:05;;;;;;;7.47;2.15;;;11.40;99.90;;;;;;5053201;28;20032;-81
2022/04/06 12:03:32;;;;;;;9.30;2.03;;;11.40;99.90;;;;;;5052776;28;20033;-78
2022/04/06 12:05:59;;;;;;;8.18;1.88;;;11.30;99.90;;;;;;5053351;28;20037;-76
2022/04/06 12:08:25;;;;;;;5.90;2.50;;;11.40;99.90;;;;;;5051799;28;20021;-78
2022/04/06 12:10:58;;;;;;;4.10;1.80;;;11.30;99.90;;;;;;5052803;28;20032;-80
2022/04/06 12:13:44;;;;;;;6.32;1.88;;;11.40;99.90;;;;;;5052927;28;20116;-79
2022/04/06 12:16:10;;;;;;;5.75;1.88;;;11.40;99.90;;;;;;5052880;28;20032;-82
2022/04/06 12:18:41;;;;;;;5.80;1.73;;;11.30;99.90;;;;;;5052896;28;20477;-81
2022/04/06 12:21:28;;;;;;;3.58;1.08;;;11.40;99.90;;;;;;5053000;28;20084;-80
2022/04/06 12:23:54;;;;;;;3.35;1.60;;;11.30;99.90;;;;;;5051316;28;20369;-72
2022/04/06 12:26:24;;;;;;;5.20;1.95;;;11.40;99.90;;;;;;5052875;28;20485;-79
2022/04/06 12:29:00;;;;;;;3.33;1.88;;;11.50;99.90;;;;;;5051700;28;20074;-78
2022/04/06 12:31:38;;;;;;;5.78;1.92;;;11.50;99.90;;;;;;5052849;28;20033;-79
2022/04/06 12:34:04;;;;;;;5.05;1.70;;;11.50;99.90;;;;;;5051757;28;20041;-82
2022/04/06 12:36:33;;;;;;;3.95;2.22;;;11.50;99.90;;;;;;5053229;28;20469;-83
2022/04/06 12:39:01;;;;;;;7.38;1.30;;;11.40;99.90;;;;;;5052554;28;20462;-83
2022/04/06 12:41:29;;;;;;;3.25;1.88;;;11.20;99.90;;;;;;5052200;28;20081;-82
2022/04/06 12:43:56;;;;;;;4.40;1.65;;;11.30;99.90;;;;;;5052935;28;20056;-80
2022/04/06 12:46:34;;;;;;;5.60;1.48;;;11.40;99.90;;;;;;5052670;28;20025;-83
2022/04/06 12:49:28;;;;;;;3.95;1.60;;;11.30;99.90;;;;;;5032995;28;20163;-82
2022/04/06 12:52:20;;;;;;;4.97;1.75;;;11.30;99.90;;;;;;5031480;28;20038;-84
2022/04/06 12:54:50;;;;;;;2.28;1.35;;;11.40;99.90;;;;;;5032540;28;20044;-83
2022/04/06 12:57:28;;;;;;;7.03;1.88;;;11.30;99.90;;;;;;5032903;28;20108;-83